Rossville, Ohio
Current Conditions -  °F | °C
As of 4:53 PM on Sunday 23 Nov 2014 (Local Time) from KHAO Reporting Station
Light Rain Light Rain  
Wind Chill: 56°   Ceiling: 8500
Heat Index: 56°   Visibility: 10mi
Dew Point: 49°   Wind: 8mph
Humidity: 77%   Direction: 120°ESE
Pressure: 29.58"   Gusts: NA
Location:  39.4158°N, 84.6488°W
Report Text: KHAO 232153Z AUTO 12007KT 10SM -RA SCT030 BKN085 OVC110 13/09 A2958 RMK AO2 PRESFR SLP015 P0002 T01330094
Loading
Personal Weather Stations






























Interactive Weather Map New forecast layout! Learn more

10-Day Weather Forecast

Advertisements
Track Severe Weather on mobile